Arcola, Texas
Current Conditions -  °F | °C
As of 8:15 AM on Saturday 01 Nov 2014 (Local Time) from KAXH Reporting Station
Clear Clear  
Wind Chill: 46°   Ceiling: Unl
Heat Index: 49°   Visibility: 10mi
Dew Point: 43°   Wind: 8mph
Humidity: 79%   Direction: 40°NE
Pressure: 30.39"   Gusts: NA
Location:  29.4042°N, 95.4477°W
Report Text: KAXH 011315Z AUTO 04007KT 10SM CLR 10/06 A3039 RMK AO2 T00950061
Loading
Personal Weather Stations






























Interactive Weather Map
Tropical Storm Tracking
New forecast layout! Learn more

10-Day Weather Forecast

Advertisements
Track Severe Weather on mobile